Jackson, Wisconsin
Current Conditions -  °F | °C
As of 11:10 PM on Saturday 20 Dec 2014 (Local Time) from KETB Reporting Station
Overcast Overcast  
Wind Chill: 30°   Ceiling: 2500
Heat Index: 30°   Visibility: 7mi
Dew Point: 27°   Wind: 0mph
Humidity: 86%   Direction: NA
Pressure: 30.21"   Gusts: NA
Location:  43.32°N, 88.17°W
Report Text: KETB 210510Z AUTO 00000KT 7SM OVC025 M01/M03 A3021 RMK AO2
Loading
Personal Weather Stations






























Interactive Weather Map New forecast layout! Learn more

10-Day Weather Forecast

Advertisements
Track Severe Weather on mobile